sensor_id;sensor_type;location;lat;lon;timestamp;P1;durP1;ratioP1;P2;durP2;ratioP2
84266;SDS011;74414;51.098;13.716;2024-03-02T00:02:23;72.80;;;35.63;;
84266;SDS011;74414;51.098;13.716;2024-03-02T00:04:48;74.17;;;35.67;;
84266;SDS011;74414;51.098;13.716;2024-03-02T00:07:14;73.75;;;35.83;;
84266;SDS011;74414;51.098;13.716;2024-03-02T00:09:39;73.10;;;34.88;;
84266;SDS011;74414;51.098;13.716;2024-03-02T00:12:05;71.72;;;33.00;;
84266;SDS011;74414;51.098;13.716;2024-03-02T00:14:30;71.40;;;34.72;;
84266;SDS011;74414;51.098;13.716;2024-03-02T00:16:56;71.05;;;34.20;;
84266;SDS011;74414;51.098;13.716;2024-03-02T00:19:22;70.43;;;33.65;;
84266;SDS011;74414;51.098;13.716;2024-03-02T00:21:48;71.97;;;35.15;;
84266;SDS011;74414;51.098;13.716;2024-03-02T00:24:32;73.85;;;35.10;;
84266;SDS011;74414;51.098;13.716;2024-03-02T00:26:59;70.47;;;35.72;;
84266;SDS011;74414;51.098;13.716;2024-03-02T00:29:25;79.60;;;37.60;;
84266;SDS011;74414;51.098;13.716;2024-03-02T00:31:50;80.95;;;35.40;;
84266;SDS011;74414;51.098;13.716;2024-03-02T00:34:16;84.88;;;39.13;;
84266;SDS011;74414;51.098;13.716;2024-03-02T00:36:42;75.00;;;35.40;;
84266;SDS011;74414;51.098;13.716;2024-03-02T00:39:08;84.63;;;36.03;;
84266;SDS011;74414;51.098;13.716;2024-03-02T00:41:33;84.57;;;34.57;;
84266;SDS011;74414;51.098;13.716;2024-03-02T00:46:26;67.53;;;34.58;;
84266;SDS011;74414;51.098;13.716;2024-03-02T00:48:58;66.25;;;33.00;;
84266;SDS011;74414;51.098;13.716;2024-03-02T00:51:29;67.20;;;32.63;;
84266;SDS011;74414;51.098;13.716;2024-03-02T00:53:57;67.93;;;32.92;;
84266;SDS011;74414;51.098;13.716;2024-03-02T00:56:24;65.38;;;33.38;;
84266;SDS011;74414;51.098;13.716;2024-03-02T00:58:50;64.65;;;31.77;;
84266;SDS011;74414;51.098;13.716;2024-03-02T01:01:16;63.58;;;32.42;;
84266;SDS011;74414;51.098;13.716;2024-03-02T01:03:42;67.45;;;32.33;;
84266;SDS011;74414;51.098;13.716;2024-03-02T01:06:08;71.13;;;32.80;;
84266;SDS011;74414;51.098;13.716;2024-03-02T01:08:34;63.03;;;31.10;;
84266;SDS011;74414;51.098;13.716;2024-03-02T01:11:01;66.38;;;31.88;;
84266;SDS011;74414;51.098;13.716;2024-03-02T01:13:27;64.40;;;30.77;;
84266;SDS011;74414;51.098;13.716;2024-03-02T01:15:53;62.22;;;30.75;;
84266;SDS011;74414;51.098;13.716;2024-03-02T01:18:18;64.43;;;30.95;;
84266;SDS011;74414;51.098;13.716;2024-03-02T01:20:44;65.53;;;31.52;;
84266;SDS011;74414;51.098;13.716;2024-03-02T01:23:09;57.88;;;28.27;;
84266;SDS011;74414;51.098;13.716;2024-03-02T01:25:35;59.17;;;30.45;;
84266;SDS011;74414;51.098;13.716;2024-03-02T01:28:00;65.53;;;32.30;;
84266;SDS011;74414;51.098;13.716;2024-03-02T01:30:26;64.57;;;31.95;;
84266;SDS011;74414;51.098;13.716;2024-03-02T01:32:52;66.00;;;31.08;;
84266;SDS011;74414;51.098;13.716;2024-03-02T01:35:17;61.13;;;30.65;;
84266;SDS011;74414;51.098;13.716;2024-03-02T01:37:42;67.97;;;32.45;;
84266;SDS011;74414;51.098;13.716;2024-03-02T01:40:08;65.25;;;30.73;;
84266;SDS011;74414;51.098;13.716;2024-03-02T01:42:38;67.03;;;32.40;;
84266;SDS011;74414;51.098;13.716;2024-03-02T01:45:07;78.57;;;35.60;;
84266;SDS011;74414;51.098;13.716;2024-03-02T01:47:33;80.97;;;37.38;;
84266;SDS011;74414;51.098;13.716;2024-03-02T01:49:59;76.53;;;33.95;;
84266;SDS011;74414;51.098;13.716;2024-03-02T01:52:26;74.28;;;33.75;;
84266;SDS011;74414;51.098;13.716;2024-03-02T01:54:51;80.72;;;35.67;;
84266;SDS011;74414;51.098;13.716;2024-03-02T01:57:17;83.15;;;36.70;;
84266;SDS011;74414;51.098;13.716;2024-03-02T01:59:42;73.13;;;34.10;;
84266;SDS011;74414;51.098;13.716;2024-03-02T02:02:08;73.90;;;34.78;;
84266;SDS011;74414;51.098;13.716;2024-03-02T02:04:34;66.43;;;32.67;;
84266;SDS011;74414;51.098;13.716;2024-03-02T02:06:59;80.85;;;35.22;;
84266;SDS011;74414;51.098;13.716;2024-03-02T02:09:25;69.68;;;33.05;;
84266;SDS011;74414;51.098;13.716;2024-03-02T02:11:51;74.20;;;34.65;;
84266;SDS011;74414;51.098;13.716;2024-03-02T02:14:17;75.25;;;35.33;;
84266;SDS011;74414;51.098;13.716;2024-03-02T02:16:43;72.90;;;34.15;;
84266;SDS011;74414;51.098;13.716;2024-03-02T02:19:08;79.75;;;35.88;;
84266;SDS011;74414;51.098;13.716;2024-03-02T02:21:34;77.63;;;35.00;;
84266;SDS011;74414;51.098;13.716;2024-03-02T02:24:00;71.47;;;34.75;;
84266;SDS011;74414;51.098;13.716;2024-03-02T02:26:28;73.07;;;33.63;;
84266;SDS011;74414;51.098;13.716;2024-03-02T02:28:54;67.03;;;32.70;;
84266;SDS011;74414;51.098;13.716;2024-03-02T02:31:19;71.82;;;33.92;;
84266;SDS011;74414;51.098;13.716;2024-03-02T02:33:45;77.82;;;34.05;;
84266;SDS011;74414;51.098;13.716;2024-03-02T02:36:11;67.47;;;31.85;;
84266;SDS011;74414;51.098;13.716;2024-03-02T02:38:38;79.55;;;35.72;;
84266;SDS011;74414;51.098;13.716;2024-03-02T02:41:07;73.78;;;33.78;;
84266;SDS011;74414;51.098;13.716;2024-03-02T02:43:33;70.47;;;32.80;;
84266;SDS011;74414;51.098;13.716;2024-03-02T02:45:58;71.63;;;32.23;;
84266;SDS011;74414;51.098;13.716;2024-03-02T02:48:23;74.78;;;34.20;;
84266;SDS011;74414;51.098;13.716;2024-03-02T02:50:49;71.53;;;31.38;;
84266;SDS011;74414;51.098;13.716;2024-03-02T02:53:15;65.88;;;31.92;;
84266;SDS011;74414;51.098;13.716;2024-03-02T02:55:41;70.97;;;32.45;;
84266;SDS011;74414;51.098;13.716;2024-03-02T02:58:08;63.88;;;30.40;;
84266;SDS011;74414;51.098;13.716;2024-03-02T03:00:34;69.75;;;32.92;;
84266;SDS011;74414;51.098;13.716;2024-03-02T03:03:00;68.15;;;31.92;;
84266;SDS011;74414;51.098;13.716;2024-03-02T03:05:25;71.37;;;33.53;;
84266;SDS011;74414;51.098;13.716;2024-03-02T03:07:52;73.78;;;33.22;;
84266;SDS011;74414;51.098;13.716;2024-03-02T03:10:17;66.75;;;30.70;;
84266;SDS011;74414;51.098;13.716;2024-03-02T03:12:43;68.22;;;32.80;;
84266;SDS011;74414;51.098;13.716;2024-03-02T03:15:09;65.82;;;33.22;;
84266;SDS011;74414;51.098;13.716;2024-03-02T03:17:35;67.10;;;31.60;;
84266;SDS011;74414;51.098;13.716;2024-03-02T03:20:02;65.38;;;31.00;;
84266;SDS011;74414;51.098;13.716;2024-03-02T03:22:29;66.53;;;32.50;;
84266;SDS011;74414;51.098;13.716;2024-03-02T03:24:56;70.32;;;33.72;;
84266;SDS011;74414;51.098;13.716;2024-03-02T03:27:22;72.57;;;34.58;;
84266;SDS011;74414;51.098;13.716;2024-03-02T03:29:48;76.97;;;34.80;;
84266;SDS011;74414;51.098;13.716;2024-03-02T03:32:14;66.50;;;31.92;;
84266;SDS011;74414;51.098;13.716;2024-03-02T03:34:39;63.50;;;30.55;;
84266;SDS011;74414;51.098;13.716;2024-03-02T03:37:05;69.75;;;33.20;;
84266;SDS011;74414;51.098;13.716;2024-03-02T03:39:31;75.43;;;33.63;;
84266;SDS011;74414;51.098;13.716;2024-03-02T03:41:58;70.75;;;33.80;;
84266;SDS011;74414;51.098;13.716;2024-03-02T03:44:24;72.18;;;34.42;;
84266;SDS011;74414;51.098;13.716;2024-03-02T03:46:49;69.53;;;32.30;;
84266;SDS011;74414;51.098;13.716;2024-03-02T03:49:15;69.17;;;31.53;;
84266;SDS011;74414;51.098;13.716;2024-03-02T03:51:40;62.25;;;31.33;;
84266;SDS011;74414;51.098;13.716;2024-03-02T03:54:05;66.82;;;32.17;;
84266;SDS011;74414;51.098;13.716;2024-03-02T03:56:31;65.88;;;30.52;;
84266;SDS011;74414;51.098;13.716;2024-03-02T03:58:56;71.57;;;31.43;;
84266;SDS011;74414;51.098;13.716;2024-03-02T04:01:22;66.95;;;31.75;;
84266;SDS011;74414;51.098;13.716;2024-03-02T04:03:48;61.63;;;30.25;;
84266;SDS011;74414;51.098;13.716;2024-03-02T04:06:14;69.28;;;33.47;;
84266;SDS011;74414;51.098;13.716;2024-03-02T04:08:41;71.43;;;32.65;;
84266;SDS011;74414;51.098;13.716;2024-03-02T04:11:07;69.13;;;32.38;;
84266;SDS011;74414;51.098;13.716;2024-03-02T04:13:33;65.30;;;31.00;;
84266;SDS011;74414;51.098;13.716;2024-03-02T04:15:58;65.28;;;31.17;;
84266;SDS011;74414;51.098;13.716;2024-03-02T04:18:24;72.13;;;33.13;;
84266;SDS011;74414;51.098;13.716;2024-03-02T04:20:49;72.95;;;32.42;;
84266;SDS011;74414;51.098;13.716;2024-03-02T04:23:14;70.03;;;32.03;;
84266;SDS011;74414;51.098;13.716;2024-03-02T04:25:40;68.17;;;31.17;;
84266;SDS011;74414;51.098;13.716;2024-03-02T04:28:05;69.72;;;32.80;;
84266;SDS011;74414;51.098;13.716;2024-03-02T04:30:30;73.05;;;32.05;;
84266;SDS011;74414;51.098;13.716;2024-03-02T04:32:56;72.38;;;31.08;;
84266;SDS011;74414;51.098;13.716;2024-03-02T04:35:22;67.35;;;30.90;;
84266;SDS011;74414;51.098;13.716;2024-03-02T04:37:48;69.57;;;32.20;;
84266;SDS011;74414;51.098;13.716;2024-03-02T04:40:13;66.25;;;28.80;;
84266;SDS011;74414;51.098;13.716;2024-03-02T04:42:39;68.20;;;29.55;;
84266;SDS011;74414;51.098;13.716;2024-03-02T04:45:05;66.05;;;30.55;;
84266;SDS011;74414;51.098;13.716;2024-03-02T04:47:30;68.95;;;30.98;;
84266;SDS011;74414;51.098;13.716;2024-03-02T04:49:56;61.20;;;29.75;;
84266;SDS011;74414;51.098;13.716;2024-03-02T04:52:21;63.97;;;29.63;;
84266;SDS011;74414;51.098;13.716;2024-03-02T04:54:46;68.63;;;30.80;;
84266;SDS011;74414;51.098;13.716;2024-03-02T04:57:30;71.75;;;33.83;;
84266;SDS011;74414;51.098;13.716;2024-03-02T04:59:56;67.27;;;30.73;;
84266;SDS011;74414;51.098;13.716;2024-03-02T05:02:21;70.60;;;31.73;;
84266;SDS011;74414;51.098;13.716;2024-03-02T05:04:46;67.10;;;30.93;;
84266;SDS011;74414;51.098;13.716;2024-03-02T05:07:13;68.53;;;29.10;;
84266;SDS011;74414;51.098;13.716;2024-03-02T05:09:39;67.20;;;30.05;;
84266;SDS011;74414;51.098;13.716;2024-03-02T05:12:05;64.00;;;28.40;;
84266;SDS011;74414;51.098;13.716;2024-03-02T05:14:49;67.40;;;30.45;;
84266;SDS011;74414;51.098;13.716;2024-03-02T05:17:14;63.95;;;28.13;;
84266;SDS011;74414;51.098;13.716;2024-03-02T05:19:40;66.55;;;28.85;;
84266;SDS011;74414;51.098;13.716;2024-03-02T05:22:05;68.97;;;30.67;;
84266;SDS011;74414;51.098;13.716;2024-03-02T05:24:31;64.05;;;29.02;;
84266;SDS011;74414;51.098;13.716;2024-03-02T05:26:56;67.40;;;29.45;;
84266;SDS011;74414;51.098;13.716;2024-03-02T05:29:21;67.10;;;29.65;;
84266;SDS011;74414;51.098;13.716;2024-03-02T05:31:47;67.55;;;30.20;;
84266;SDS011;74414;51.098;13.716;2024-03-02T05:34:13;63.75;;;27.95;;
84266;SDS011;74414;51.098;13.716;2024-03-02T05:36:39;63.83;;;28.13;;
84266;SDS011;74414;51.098;13.716;2024-03-02T05:39:04;69.20;;;29.40;;
84266;SDS011;74414;51.098;13.716;2024-03-02T05:41:31;60.35;;;28.10;;
84266;SDS011;74414;51.098;13.716;2024-03-02T05:43:57;71.60;;;28.30;;
84266;SDS011;74414;51.098;13.716;2024-03-02T05:46:22;67.63;;;27.67;;
84266;SDS011;74414;51.098;13.716;2024-03-02T05:48:47;65.22;;;28.00;;
84266;SDS011;74414;51.098;13.716;2024-03-02T05:51:13;64.83;;;27.40;;
84266;SDS011;74414;51.098;13.716;2024-03-02T05:53:38;64.18;;;26.60;;
84266;SDS011;74414;51.098;13.716;2024-03-02T05:56:04;64.70;;;28.02;;
84266;SDS011;74414;51.098;13.716;2024-03-02T05:58:30;65.55;;;26.50;;
84266;SDS011;74414;51.098;13.716;2024-03-02T06:01:13;63.92;;;25.88;;
84266;SDS011;74414;51.098;13.716;2024-03-02T06:03:38;58.53;;;26.38;;
84266;SDS011;74414;51.098;13.716;2024-03-02T06:06:04;62.38;;;25.90;;
84266;SDS011;74414;51.098;13.716;2024-03-02T06:08:30;59.97;;;26.27;;
84266;SDS011;74414;51.098;13.716;2024-03-02T06:10:56;59.58;;;26.10;;
84266;SDS011;74414;51.098;13.716;2024-03-02T06:13:21;67.70;;;28.70;;
84266;SDS011;74414;51.098;13.716;2024-03-02T06:15:47;69.43;;;28.50;;
84266;SDS011;74414;51.098;13.716;2024-03-02T06:18:12;66.53;;;26.55;;
84266;SDS011;74414;51.098;13.716;2024-03-02T06:20:37;64.55;;;28.33;;
84266;SDS011;74414;51.098;13.716;2024-03-02T06:23:03;64.67;;;26.50;;
84266;SDS011;74414;51.098;13.716;2024-03-02T06:25:29;61.75;;;26.15;;
84266;SDS011;74414;51.098;13.716;2024-03-02T06:27:54;63.20;;;25.40;;
84266;SDS011;74414;51.098;13.716;2024-03-02T06:30:19;66.13;;;27.20;;
84266;SDS011;74414;51.098;13.716;2024-03-02T06:32:45;56.23;;;24.93;;
84266;SDS011;74414;51.098;13.716;2024-03-02T06:35:10;60.67;;;25.42;;
84266;SDS011;74414;51.098;13.716;2024-03-02T06:37:37;61.42;;;25.83;;
84266;SDS011;74414;51.098;13.716;2024-03-02T06:40:04;60.13;;;24.67;;
84266;SDS011;74414;51.098;13.716;2024-03-02T06:42:32;61.33;;;24.92;;
84266;SDS011;74414;51.098;13.716;2024-03-02T06:44:58;60.83;;;26.40;;
84266;SDS011;74414;51.098;13.716;2024-03-02T06:47:24;62.15;;;25.63;;
84266;SDS011;74414;51.098;13.716;2024-03-02T06:49:49;63.40;;;26.10;;
84266;SDS011;74414;51.098;13.716;2024-03-02T06:52:15;56.80;;;26.38;;
84266;SDS011;74414;51.098;13.716;2024-03-02T06:54:40;68.60;;;26.70;;
84266;SDS011;74414;51.098;13.716;2024-03-02T06:57:05;58.00;;;25.40;;
84266;SDS011;74414;51.098;13.716;2024-03-02T06:59:31;61.17;;;24.37;;
84266;SDS011;74414;51.098;13.716;2024-03-02T07:01:56;61.22;;;24.67;;
84266;SDS011;74414;51.098;13.716;2024-03-02T07:04:22;56.03;;;25.02;;
84266;SDS011;74414;51.098;13.716;2024-03-02T07:06:47;53.00;;;23.33;;
84266;SDS011;74414;51.098;13.716;2024-03-02T07:09:12;60.13;;;25.85;;
84266;SDS011;74414;51.098;13.716;2024-03-02T07:11:38;69.53;;;29.67;;
84266;SDS011;74414;51.098;13.716;2024-03-02T07:14:03;57.58;;;25.80;;
84266;SDS011;74414;51.098;13.716;2024-03-02T07:16:28;58.07;;;25.23;;
84266;SDS011;74414;51.098;13.716;2024-03-02T07:18:55;60.38;;;24.98;;
84266;SDS011;74414;51.098;13.716;2024-03-02T07:21:22;55.33;;;25.33;;
84266;SDS011;74414;51.098;13.716;2024-03-02T07:23:48;59.35;;;25.88;;
84266;SDS011;74414;51.098;13.716;2024-03-02T07:26:14;57.85;;;24.45;;
84266;SDS011;74414;51.098;13.716;2024-03-02T07:28:40;55.42;;;25.45;;
84266;SDS011;74414;51.098;13.716;2024-03-02T07:31:06;55.88;;;24.60;;
84266;SDS011;74414;51.098;13.716;2024-03-02T07:33:32;59.17;;;26.30;;
84266;SDS011;74414;51.098;13.716;2024-03-02T07:35:58;56.70;;;27.30;;
84266;SDS011;74414;51.098;13.716;2024-03-02T07:38:26;52.45;;;22.90;;
84266;SDS011;74414;51.098;13.716;2024-03-02T07:40:52;54.92;;;25.08;;
84266;SDS011;74414;51.098;13.716;2024-03-02T07:43:18;61.50;;;26.83;;
84266;SDS011;74414;51.098;13.716;2024-03-02T07:45:44;57.72;;;25.90;;
84266;SDS011;74414;51.098;13.716;2024-03-02T07:48:09;56.88;;;26.65;;
84266;SDS011;74414;51.098;13.716;2024-03-02T07:50:35;59.33;;;25.83;;
84266;SDS011;74414;51.098;13.716;2024-03-02T07:53:01;57.60;;;24.93;;
84266;SDS011;74414;51.098;13.716;2024-03-02T07:55:26;54.95;;;23.95;;
84266;SDS011;74414;51.098;13.716;2024-03-02T07:57:52;57.08;;;25.55;;
84266;SDS011;74414;51.098;13.716;2024-03-02T08:00:17;55.67;;;24.23;;
84266;SDS011;74414;51.098;13.716;2024-03-02T08:02:43;59.20;;;25.30;;
84266;SDS011;74414;51.098;13.716;2024-03-02T08:05:09;56.10;;;24.42;;
84266;SDS011;74414;51.098;13.716;2024-03-02T08:07:34;62.25;;;25.95;;
84266;SDS011;74414;51.098;13.716;2024-03-02T08:10:00;57.78;;;26.10;;
84266;SDS011;74414;51.098;13.716;2024-03-02T08:12:25;60.90;;;26.55;;
84266;SDS011;74414;51.098;13.716;2024-03-02T08:14:50;55.88;;;25.63;;
84266;SDS011;74414;51.098;13.716;2024-03-02T08:17:16;55.50;;;24.98;;
84266;SDS011;74414;51.098;13.716;2024-03-02T08:19:42;62.17;;;25.98;;
84266;SDS011;74414;51.098;13.716;2024-03-02T08:22:07;62.10;;;25.70;;
84266;SDS011;74414;51.098;13.716;2024-03-02T08:24:32;56.23;;;23.67;;
84266;SDS011;74414;51.098;13.716;2024-03-02T08:26:59;63.45;;;26.02;;
84266;SDS011;74414;51.098;13.716;2024-03-02T08:29:25;59.80;;;25.42;;
84266;SDS011;74414;51.098;13.716;2024-03-02T08:31:50;65.63;;;25.67;;
84266;SDS011;74414;51.098;13.716;2024-03-02T08:34:16;57.28;;;24.63;;
84266;SDS011;74414;51.098;13.716;2024-03-02T08:36:41;56.88;;;26.45;;
84266;SDS011;74414;51.098;13.716;2024-03-02T08:39:07;63.08;;;25.20;;
84266;SDS011;74414;51.098;13.716;2024-03-02T08:41:40;54.72;;;24.52;;
84266;SDS011;74414;51.098;13.716;2024-03-02T08:44:12;63.25;;;26.27;;
84266;SDS011;74414;51.098;13.716;2024-03-02T08:46:39;55.40;;;24.70;;
84266;SDS011;74414;51.098;13.716;2024-03-02T08:49:05;56.80;;;23.70;;
84266;SDS011;74414;51.098;13.716;2024-03-02T08:51:30;51.95;;;22.10;;
84266;SDS011;74414;51.098;13.716;2024-03-02T08:53:57;56.45;;;24.45;;
84266;SDS011;74414;51.098;13.716;2024-03-02T08:56:23;58.35;;;22.13;;
84266;SDS011;74414;51.098;13.716;2024-03-02T08:58:49;49.88;;;21.13;;
84266;SDS011;74414;51.098;13.716;2024-03-02T09:01:15;50.38;;;21.95;;
84266;SDS011;74414;51.098;13.716;2024-03-02T09:03:41;47.35;;;21.30;;
84266;SDS011;74414;51.098;13.716;2024-03-02T09:06:09;52.15;;;20.90;;
84266;SDS011;74414;51.098;13.716;2024-03-02T09:08:35;42.13;;;18.48;;
84266;SDS011;74414;51.098;13.716;2024-03-02T09:11:01;38.72;;;18.75;;
84266;SDS011;74414;51.098;13.716;2024-03-02T09:13:28;40.08;;;17.85;;
84266;SDS011;74414;51.098;13.716;2024-03-02T09:15:54;35.42;;;17.17;;
84266;SDS011;74414;51.098;13.716;2024-03-02T09:18:19;29.88;;;15.80;;
84266;SDS011;74414;51.098;13.716;2024-03-02T09:20:44;31.93;;;15.13;;
84266;SDS011;74414;51.098;13.716;2024-03-02T09:23:11;32.65;;;15.90;;
84266;SDS011;74414;51.098;13.716;2024-03-02T09:25:36;36.55;;;15.75;;
84266;SDS011;74414;51.098;13.716;2024-03-02T09:28:02;29.75;;;14.80;;
84266;SDS011;74414;51.098;13.716;2024-03-02T09:30:28;27.30;;;12.82;;
84266;SDS011;74414;51.098;13.716;2024-03-02T09:32:53;27.85;;;14.80;;
84266;SDS011;74414;51.098;13.716;2024-03-02T09:35:19;29.10;;;13.63;;
84266;SDS011;74414;51.098;13.716;2024-03-02T09:37:44;29.00;;;15.15;;
84266;SDS011;74414;51.098;13.716;2024-03-02T09:40:10;29.30;;;14.40;;
84266;SDS011;74414;51.098;13.716;2024-03-02T09:42:36;30.65;;;13.70;;
84266;SDS011;74414;51.098;13.716;2024-03-02T09:45:01;25.08;;;13.43;;
84266;SDS011;74414;51.098;13.716;2024-03-02T09:47:27;31.83;;;15.23;;
84266;SDS011;74414;51.098;13.716;2024-03-02T09:49:52;26.27;;;13.45;;
84266;SDS011;74414;51.098;13.716;2024-03-02T09:52:17;28.75;;;12.15;;
84266;SDS011;74414;51.098;13.716;2024-03-02T09:54:43;27.70;;;12.98;;
84266;SDS011;74414;51.098;13.716;2024-03-02T09:57:08;25.42;;;12.68;;
84266;SDS011;74414;51.098;13.716;2024-03-02T09:59:34;25.42;;;11.82;;
84266;SDS011;74414;51.098;13.716;2024-03-02T10:02:00;27.97;;;13.63;;
84266;SDS011;74414;51.098;13.716;2024-03-02T10:04:27;25.80;;;13.38;;
84266;SDS011;74414;51.098;13.716;2024-03-02T10:09:47;28.48;;;13.32;;
84266;SDS011;74414;51.098;13.716;2024-03-02T10:12:17;30.67;;;13.68;;
84266;SDS011;74414;51.098;13.716;2024-03-02T10:14:43;31.65;;;14.00;;
84266;SDS011;74414;51.098;13.716;2024-03-02T10:17:09;28.38;;;13.80;;
84266;SDS011;74414;51.098;13.716;2024-03-02T10:19:36;34.92;;;15.82;;
84266;SDS011;74414;51.098;13.716;2024-03-02T10:22:02;37.20;;;15.70;;
84266;SDS011;74414;51.098;13.716;2024-03-02T10:24:37;37.03;;;15.35;;
84266;SDS011;74414;51.098;13.716;2024-03-02T10:27:07;33.83;;;15.15;;
84266;SDS011;74414;51.098;13.716;2024-03-02T10:29:40;35.67;;;16.38;;
84266;SDS011;74414;51.098;13.716;2024-03-02T10:32:09;35.78;;;16.15;;
84266;SDS011;74414;51.098;13.716;2024-03-02T10:34:36;34.83;;;15.15;;
84266;SDS011;74414;51.098;13.716;2024-03-02T10:37:06;38.38;;;16.20;;
84266;SDS011;74414;51.098;13.716;2024-03-02T10:39:34;32.20;;;13.88;;
84266;SDS011;74414;51.098;13.716;2024-03-02T10:42:06;27.33;;;12.57;;
84266;SDS011;74414;51.098;13.716;2024-03-02T10:44:32;28.23;;;14.32;;
84266;SDS011;74414;51.098;13.716;2024-03-02T10:47:01;31.63;;;13.90;;
84266;SDS011;74414;51.098;13.716;2024-03-02T10:49:31;35.88;;;14.63;;
84266;SDS011;74414;51.098;13.716;2024-03-02T10:51:58;26.00;;;13.65;;
84266;SDS011;74414;51.098;13.716;2024-03-02T10:54:24;24.80;;;11.52;;
84266;SDS011;74414;51.098;13.716;2024-03-02T10:56:52;26.23;;;12.43;;
84266;SDS011;74414;51.098;13.716;2024-03-02T11:01:51;24.95;;;12.20;;
84266;SDS011;74414;51.098;13.716;2024-03-02T11:04:21;25.02;;;12.73;;
84266;SDS011;74414;51.098;13.716;2024-03-02T11:06:49;25.08;;;12.05;;
84266;SDS011;74414;51.098;13.716;2024-03-02T11:09:18;21.42;;;10.90;;
84266;SDS011;74414;51.098;13.716;2024-03-02T11:11:45;22.85;;;9.98;;
84266;SDS011;74414;51.098;13.716;2024-03-02T11:14:21;20.17;;;10.93;;
84266;SDS011;74414;51.098;13.716;2024-03-02T11:16:50;19.88;;;9.57;;
84266;SDS011;74414;51.098;13.716;2024-03-02T11:19:17;17.23;;;9.07;;
84266;SDS011;74414;51.098;13.716;2024-03-02T11:21:43;14.68;;;9.13;;
84266;SDS011;74414;51.098;13.716;2024-03-02T11:26:49;15.93;;;9.32;;
84266;SDS011;74414;51.098;13.716;2024-03-02T11:32:00;15.88;;;9.10;;
84266;SDS011;74414;51.098;13.716;2024-03-02T11:34:34;18.42;;;9.23;;
84266;SDS011;74414;51.098;13.716;2024-03-02T11:37:01;14.50;;;8.02;;
84266;SDS011;74414;51.098;13.716;2024-03-02T11:39:27;16.50;;;8.77;;
84266;SDS011;74414;51.098;13.716;2024-03-02T11:41:53;14.13;;;7.85;;
84266;SDS011;74414;51.098;13.716;2024-03-02T11:44:19;14.30;;;7.00;;
84266;SDS011;74414;51.098;13.716;2024-03-02T11:46:45;13.15;;;6.72;;
84266;SDS011;74414;51.098;13.716;2024-03-02T11:49:20;12.10;;;7.13;;
84266;SDS011;74414;51.098;13.716;2024-03-02T11:52:01;13.48;;;7.63;;
84266;SDS011;74414;51.098;13.716;2024-03-02T11:54:27;11.55;;;6.97;;
84266;SDS011;74414;51.098;13.716;2024-03-02T11:57:00;15.25;;;7.55;;
84266;SDS011;74414;51.098;13.716;2024-03-02T11:59:27;10.30;;;6.47;;
84266;SDS011;74414;51.098;13.716;2024-03-02T12:01:54;12.43;;;6.55;;
84266;SDS011;74414;51.098;13.716;2024-03-02T12:04:20;12.10;;;6.00;;
84266;SDS011;74414;51.098;13.716;2024-03-02T12:06:47;10.27;;;6.38;;
84266;SDS011;74414;51.098;13.716;2024-03-02T12:09:13;10.82;;;6.38;;
84266;SDS011;74414;51.098;13.716;2024-03-02T12:11:40;9.30;;;5.85;;
84266;SDS011;74414;51.098;13.716;2024-03-02T12:14:10;6.28;;;4.60;;
84266;SDS011;74414;51.098;13.716;2024-03-02T12:16:37;9.45;;;5.75;;
84266;SDS011;74414;51.098;13.716;2024-03-02T12:19:04;10.85;;;6.20;;
84266;SDS011;74414;51.098;13.716;2024-03-02T12:21:30;9.13;;;6.05;;
84266;SDS011;74414;51.098;13.716;2024-03-02T12:23:56;11.65;;;6.15;;
84266;SDS011;74414;51.098;13.716;2024-03-02T12:26:21;8.65;;;5.57;;
84266;SDS011;74414;51.098;13.716;2024-03-02T12:28:47;11.82;;;5.63;;
84266;SDS011;74414;51.098;13.716;2024-03-02T12:31:13;11.18;;;6.40;;
84266;SDS011;74414;51.098;13.716;2024-03-02T12:33:39;11.23;;;7.20;;
84266;SDS011;74414;51.098;13.716;2024-03-02T12:36:09;18.00;;;8.45;;
84266;SDS011;74414;51.098;13.716;2024-03-02T12:38:37;16.95;;;8.18;;
84266;SDS011;74414;51.098;13.716;2024-03-02T12:41:04;20.08;;;8.60;;
84266;SDS011;74414;51.098;13.716;2024-03-02T12:43:30;18.48;;;8.63;;
84266;SDS011;74414;51.098;13.716;2024-03-02T12:45:56;18.85;;;8.88;;
84266;SDS011;74414;51.098;13.716;2024-03-02T12:48:23;19.95;;;9.52;;
84266;SDS011;74414;51.098;13.716;2024-03-02T12:50:48;20.52;;;8.85;;
84266;SDS011;74414;51.098;13.716;2024-03-02T12:53:14;21.40;;;9.48;;
84266;SDS011;74414;51.098;13.716;2024-03-02T12:55:41;20.98;;;9.80;;
84266;SDS011;74414;51.098;13.716;2024-03-02T12:58:08;21.80;;;9.27;;
84266;SDS011;74414;51.098;13.716;2024-03-02T13:00:34;15.73;;;8.80;;
84266;SDS011;74414;51.098;13.716;2024-03-02T13:03:00;16.30;;;8.48;;
84266;SDS011;74414;51.098;13.716;2024-03-02T13:05:32;16.77;;;8.63;;
84266;SDS011;74414;51.098;13.716;2024-03-02T13:07:58;19.92;;;8.23;;
84266;SDS011;74414;51.098;13.716;2024-03-02T13:10:24;17.98;;;8.48;;
84266;SDS011;74414;51.098;13.716;2024-03-02T13:12:50;16.33;;;8.95;;
84266;SDS011;74414;51.098;13.716;2024-03-02T13:15:15;18.98;;;8.20;;
84266;SDS011;74414;51.098;13.716;2024-03-02T13:17:41;17.52;;;9.95;;
84266;SDS011;74414;51.098;13.716;2024-03-02T13:20:06;16.80;;;8.52;;
84266;SDS011;74414;51.098;13.716;2024-03-02T13:22:36;21.60;;;9.73;;
84266;SDS011;74414;51.098;13.716;2024-03-02T13:25:01;20.38;;;9.90;;
84266;SDS011;74414;51.098;13.716;2024-03-02T13:27:29;16.38;;;8.98;;
84266;SDS011;74414;51.098;13.716;2024-03-02T13:29:55;17.55;;;8.38;;
84266;SDS011;74414;51.098;13.716;2024-03-02T13:32:20;18.95;;;9.80;;
84266;SDS011;74414;51.098;13.716;2024-03-02T13:34:48;19.42;;;9.65;;
84266;SDS011;74414;51.098;13.716;2024-03-02T13:37:14;19.48;;;9.00;;
84266;SDS011;74414;51.098;13.716;2024-03-02T13:39:39;17.30;;;9.40;;
84266;SDS011;74414;51.098;13.716;2024-03-02T13:42:07;18.63;;;9.32;;
84266;SDS011;74414;51.098;13.716;2024-03-02T13:44:36;20.92;;;10.35;;
84266;SDS011;74414;51.098;13.716;2024-03-02T13:47:02;23.35;;;9.45;;
84266;SDS011;74414;51.098;13.716;2024-03-02T13:49:28;22.13;;;10.52;;
84266;SDS011;74414;51.098;13.716;2024-03-02T13:52:02;18.77;;;8.75;;
84266;SDS011;74414;51.098;13.716;2024-03-02T13:54:30;18.48;;;9.75;;
84266;SDS011;74414;51.098;13.716;2024-03-02T13:56:55;20.50;;;9.63;;
84266;SDS011;74414;51.098;13.716;2024-03-02T13:59:23;18.35;;;9.32;;
84266;SDS011;74414;51.098;13.716;2024-03-02T14:01:49;18.30;;;8.75;;
84266;SDS011;74414;51.098;13.716;2024-03-02T14:04:15;15.77;;;8.80;;
84266;SDS011;74414;51.098;13.716;2024-03-02T14:06:40;20.60;;;8.70;;
84266;SDS011;74414;51.098;13.716;2024-03-02T14:09:08;17.60;;;8.27;;
84266;SDS011;74414;51.098;13.716;2024-03-02T14:11:33;18.70;;;9.30;;
84266;SDS011;74414;51.098;13.716;2024-03-02T14:13:59;16.97;;;8.40;;
84266;SDS011;74414;51.098;13.716;2024-03-02T14:16:24;18.65;;;9.55;;
84266;SDS011;74414;51.098;13.716;2024-03-02T14:18:49;20.60;;;8.90;;
84266;SDS011;74414;51.098;13.716;2024-03-02T14:21:15;18.53;;;9.83;;